KWRB/WRB METAR and TAF weather

Enter ICAO airport designator
Station Type Date Time Source
KWRB METAR 2019/06/19 05:56 UTC NOAA

KWRB 190556Z AUTO 14003KT 10SM FEW150 22/22 A2992 RMK AO2 SLP132 T02220218 10232 20222 58004


Station Type Date Time Source
KWRB Decoded METAR 2019/06/19 05:56 UTC NOAA

Warner Robins Air Force Base, GA, United States (KWRB) 32-38N 083-36W
Jun 19, 2019 - 01:56 AM EDT / 2019.06.19 0556 UTC
Wind: from the SE (140 degrees) at 3 MPH (3 KT):0
Visibility: 10 mile(s):0
Sky conditions: mostly clear
Temperature: 72.0 F (22.2 C)
Dew Point: 71.2 F (21.8 C)
Relative Humidity: 97%
Pressure (altimeter): 29.92 in. Hg (1013 hPa)
Pressure tendency: 0.01 inches (0.4 hPa) lower than three hours ago
ob: KWRB 190556Z AUTO 14003KT 10SM FEW150 22/22 A2992 RMK AO2 SLP132 T02220218 10232 20222 58004
cycle: 6

Station Type Date Time Source
KWRB TAF 2019/06/19 05:54 UTC NOAA

TAF TAF KWRB 190550Z 1905/2011 VRB06KT 9999 FEW013 SCT170 QNH2988INS
TEMPO 1905/1910 BKN013
BECMG 1909/1910 21006KT 9000 -RA BKN020 QNH2986INS
BECMG 1915/1916 23012KT 9000 -SHRA BKN030 QNH2980INS
BECMG 1917/1918 23006KT 9000 -SHRA BKN030 QNH2978INS
TEMPO 1922/2002 VRB20G30KT 9000 -TSRA SCT035CB BKN050
BECMG 2001/2002 24006KT 9999 NSW FEW060 QNH2984INS TX32/1920Z TN22/1905Z

Example: see airport list